Time;durP1;ratioP1;P1;durP2;ratioP2;P2;SDS_P1;SDS_P2;PMS_P1;PMS_P2;Temp;Humidity;BMP_temperature;BMP_pressure;BME280_temperature;BME280_humidity;BME280_pressure;Samples;Min_cycle;Max_cycle;Signal;HPM_P1;HPM_P2
2024/04/03 00:00:09;;;;;;;0.20;0.10;;;;;;;;;;5130236;27;20222;-64
2024/04/03 00:02:35;;;;;;;0.20;0.10;;;;;;;;;;5129902;27;20200;-65
2024/04/03 00:05:01;;;;;;;0.20;0.10;;;;;;;;;;5127514;27;20188;-64
2024/04/03 00:07:27;;;;;;;0.20;0.10;;;;;;;;;;5125510;27;20196;-64
2024/04/03 00:09:53;;;;;;;0.20;0.10;;;;;;;;;;5128127;27;20177;-64
2024/04/03 00:12:19;;;;;;;0.20;0.10;;;;;;;;;;5131443;27;20200;-64
2024/04/03 00:14:45;;;;;;;0.20;0.10;;;;;;;;;;5132678;27;20765;-63
2024/04/03 00:17:11;;;;;;;0.20;0.10;;;;;;;;;;5123926;27;20176;-65
2024/04/03 00:19:37;;;;;;;0.20;0.10;;;;;;;;;;5127271;27;20173;-65
2024/04/03 00:22:03;;;;;;;0.20;0.10;;;;;;;;;;5129996;27;20181;-65
2024/04/03 00:24:29;;;;;;;0.20;0.03;;;;;;;;;;5141957;27;20172;-65
2024/04/03 00:26:55;;;;;;;0.20;0.10;;;;;;;;;;5128364;27;20658;-65
2024/04/03 00:29:21;;;;;;;0.20;0.10;;;;;;;;;;5116753;28;20188;-64
2024/04/03 00:31:47;;;;;;;0.20;0.10;;;;;;;;;;5127827;27;20568;-65
2024/04/03 00:34:13;;;;;;;0.20;0.10;;;;;;;;;;5138299;27;20205;-64
2024/04/03 00:36:39;;;;;;;0.20;0.10;;;;;;;;;;5135831;27;20172;-66
2024/04/03 00:39:05;;;;;;;0.20;0.10;;;;;;;;;;5137512;27;20288;-65
2024/04/03 00:41:31;;;;;;;0.20;0.10;;;;;;;;;;5126941;27;20207;-64
2024/04/03 00:43:57;;;;;;;0.20;0.10;;;;;;;;;;5134751;27;20181;-64
2024/04/03 00:46:23;;;;;;;0.20;0.10;;;;;;;;;;5131654;27;20176;-65
2024/04/03 00:48:49;;;;;;;0.20;0.10;;;;;;;;;;5131553;27;20182;-64
2024/04/03 00:51:16;;;;;;;0.20;0.10;;;;;;;;;;5131484;27;20200;-65
2024/04/03 00:53:42;;;;;;;0.20;0.10;;;;;;;;;;5132202;27;20196;-64
2024/04/03 00:56:08;;;;;;;0.20;0.10;;;;;;;;;;5111963;27;20176;-65
2024/04/03 00:58:35;;;;;;;0.20;0.10;;;;;;;;;;5131458;27;20180;-65
2024/04/03 01:01:01;;;;;;;0.20;0.10;;;;;;;;;;5131499;27;20204;-65
2024/04/03 01:03:27;;;;;;;0.20;0.10;;;;;;;;;;5131472;27;20615;-64
2024/04/03 01:06:03;;;;;;;0.20;0.10;;;;;;;;;;5130491;27;20561;-65
2024/04/03 01:08:30;;;;;;;0.20;0.10;;;;;;;;;;5134012;27;20529;-65
2024/04/03 01:10:57;;;;;;;0.20;0.10;;;;;;;;;;5133606;27;20207;-66
2024/04/03 01:13:23;;;;;;;0.20;0.10;;;;;;;;;;5134831;27;20178;-64
2024/04/03 01:15:52;;;;;;;0.20;0.10;;;;;;;;;;5129430;27;20219;-64
2024/04/03 01:18:18;;;;;;;0.20;0.10;;;;;;;;;;5131155;27;20180;-64
2024/04/03 01:20:44;;;;;;;0.20;0.00;;;;;;;;;;5130861;27;20205;-64
2024/04/03 01:23:10;;;;;;;0.20;0.10;;;;;;;;;;5132183;27;20177;-65
2024/04/03 01:25:36;;;;;;;0.20;0.10;;;;;;;;;;5125256;27;20855;-65
2024/04/03 01:28:02;;;;;;;0.20;0.10;;;;;;;;;;5129231;27;20183;-64
2024/04/03 01:30:28;;;;;;;0.20;0.10;;;;;;;;;;5132370;27;20176;-64
2024/04/03 01:32:54;;;;;;;0.20;0.10;;;;;;;;;;5130147;27;20628;-65
2024/04/03 01:35:20;;;;;;;0.20;0.10;;;;;;;;;;5123986;27;20606;-65
2024/04/03 01:37:46;;;;;;;0.20;0.10;;;;;;;;;;5125838;27;20176;-65
2024/04/03 01:40:12;;;;;;;0.20;0.10;;;;;;;;;;5129084;27;20177;-64
2024/04/03 01:42:38;;;;;;;0.20;0.10;;;;;;;;;;5133810;27;20231;-64
2024/04/03 01:45:04;;;;;;;0.20;0.10;;;;;;;;;;5123723;27;20180;-62
2024/04/03 01:47:30;;;;;;;0.20;0.10;;;;;;;;;;5123042;27;20177;-65
2024/04/03 01:49:56;;;;;;;0.20;0.10;;;;;;;;;;5128431;27;20177;-66
2024/04/03 01:52:23;;;;;;;0.20;0.10;;;;;;;;;;5129812;27;20288;-64
2024/04/03 01:54:49;;;;;;;0.20;0.10;;;;;;;;;;5128983;27;20314;-64
2024/04/03 01:57:15;;;;;;;0.20;0.10;;;;;;;;;;5110222;27;20316;-64
2024/04/03 01:59:41;;;;;;;0.20;0.10;;;;;;;;;;5123502;27;20646;-65
2024/04/03 02:02:07;;;;;;;0.20;0.10;;;;;;;;;;5129411;27;20200;-65
2024/04/03 02:04:33;;;;;;;0.20;0.10;;;;;;;;;;5129710;27;20680;-64
2024/04/03 02:06:59;;;;;;;0.20;0.10;;;;;;;;;;5130591;27;20200;-65
2024/04/03 02:09:26;;;;;;;0.20;0.00;;;;;;;;;;5124121;27;20259;-64
2024/04/03 02:11:51;;;;;;;0.20;0.10;;;;;;;;;;5129329;27;20817;-65
2024/04/03 02:14:17;;;;;;;0.20;0.10;;;;;;;;;;5129084;27;20204;-64
2024/04/03 02:16:44;;;;;;;0.20;0.10;;;;;;;;;;5131873;27;20172;-64
2024/04/03 02:19:10;;;;;;;0.20;0.10;;;;;;;;;;5124038;27;20361;-65
2024/04/03 02:21:36;;;;;;;0.20;0.10;;;;;;;;;;5128736;27;20556;-64
2024/04/03 02:24:02;;;;;;;0.20;0.00;;;;;;;;;;5132835;27;20177;-65
2024/04/03 02:26:28;;;;;;;0.20;0.10;;;;;;;;;;5127343;27;20229;-64
2024/04/03 02:28:54;;;;;;;0.20;0.10;;;;;;;;;;5130118;27;20180;-64
2024/04/03 02:31:20;;;;;;;0.20;0.10;;;;;;;;;;5134680;27;20607;-64
2024/04/03 02:33:47;;;;;;;0.20;0.10;;;;;;;;;;5130898;27;20207;-63
2024/04/03 02:36:13;;;;;;;0.20;0.10;;;;;;;;;;5137838;27;20180;-64
2024/04/03 02:38:39;;;;;;;0.20;0.10;;;;;;;;;;5136174;27;20176;-64
2024/04/03 02:41:05;;;;;;;0.20;0.10;;;;;;;;;;5133775;27;20226;-64
2024/04/03 02:43:32;;;;;;;0.20;0.03;;;;;;;;;;5116673;27;20175;-64
2024/04/03 02:45:58;;;;;;;0.20;0.10;;;;;;;;;;5132354;27;20177;-63
2024/04/03 02:48:24;;;;;;;0.20;0.10;;;;;;;;;;5130400;27;20260;-63
2024/04/03 02:50:51;;;;;;;0.20;0.10;;;;;;;;;;5139876;27;20207;-64
2024/04/03 02:53:17;;;;;;;0.20;0.10;;;;;;;;;;5130212;27;20230;-62
2024/04/03 02:55:43;;;;;;;0.20;0.10;;;;;;;;;;5127744;27;20283;-64
2024/04/03 02:58:09;;;;;;;0.20;0.10;;;;;;;;;;5128944;27;20275;-61
2024/04/03 03:00:35;;;;;;;0.20;0.10;;;;;;;;;;5129218;27;20168;-63
2024/04/03 03:03:01;;;;;;;0.20;0.10;;;;;;;;;;5127776;27;20218;-64
2024/04/03 03:05:27;;;;;;;0.20;0.10;;;;;;;;;;5129450;27;20189;-63
2024/04/03 03:07:53;;;;;;;0.20;0.10;;;;;;;;;;5125427;27;20279;-63
2024/04/03 03:10:19;;;;;;;0.20;0.10;;;;;;;;;;5126985;27;20176;-64
2024/04/03 03:12:45;;;;;;;0.20;0.10;;;;;;;;;;5130327;27;20632;-65
2024/04/03 03:15:11;;;;;;;0.20;0.10;;;;;;;;;;5128490;27;20208;-65
2024/04/03 03:17:37;;;;;;;0.20;0.10;;;;;;;;;;5135023;27;20203;-64
2024/04/03 03:20:03;;;;;;;0.20;0.10;;;;;;;;;;5119512;27;20207;-65
2024/04/03 03:22:29;;;;;;;0.20;0.10;;;;;;;;;;5130701;27;20204;-65
2024/04/03 03:24:55;;;;;;;0.20;0.10;;;;;;;;;;5132350;27;20184;-65
2024/04/03 03:27:21;;;;;;;0.20;0.00;;;;;;;;;;5128554;27;20208;-64
2024/04/03 03:29:47;;;;;;;0.20;0.10;;;;;;;;;;5134629;27;20176;-66
2024/04/03 03:32:13;;;;;;;0.20;0.10;;;;;;;;;;5125568;27;20204;-65
2024/04/03 03:34:39;;;;;;;0.20;0.10;;;;;;;;;;5141341;27;20204;-65
2024/04/03 03:37:05;;;;;;;0.20;0.05;;;;;;;;;;5129268;27;20720;-65
2024/04/03 03:39:31;;;;;;;0.20;0.10;;;;;;;;;;5126703;27;20172;-64
2024/04/03 03:41:57;;;;;;;0.20;0.10;;;;;;;;;;5128396;27;20193;-65
2024/04/03 03:44:24;;;;;;;0.20;0.10;;;;;;;;;;5131080;27;20181;-65
2024/04/03 03:46:50;;;;;;;0.20;0.10;;;;;;;;;;5127592;27;20725;-65
2024/04/03 03:54:46;;;;;;;0.20;0.17;;;;;;;;;;5134402;27;20269;-63
2024/04/03 03:57:12;;;;;;;0.20;0.03;;;;;;;;;;5131042;27;20214;-65
2024/04/03 03:59:38;;;;;;;0.20;0.10;;;;;;;;;;5124930;27;20177;-63
2024/04/03 04:02:04;;;;;;;0.20;0.10;;;;;;;;;;5126257;27;20215;-66
2024/04/03 04:04:30;;;;;;;0.20;0.10;;;;;;;;;;5127466;27;20179;-65
2024/04/03 04:06:56;;;;;;;0.20;0.10;;;;;;;;;;5127259;27;20566;-63
2024/04/03 04:09:22;;;;;;;0.20;0.10;;;;;;;;;;5127178;27;20203;-64
2024/04/03 04:11:48;;;;;;;0.20;0.10;;;;;;;;;;5128058;27;20275;-64
2024/04/03 04:14:14;;;;;;;0.20;0.10;;;;;;;;;;5137539;27;20620;-65
2024/04/03 04:16:40;;;;;;;0.20;0.10;;;;;;;;;;5132469;27;20180;-65
2024/04/03 04:19:06;;;;;;;0.20;0.10;;;;;;;;;;5133962;27;21042;-65
2024/04/03 04:21:32;;;;;;;0.20;0.10;;;;;;;;;;5132608;27;20197;-65
2024/04/03 04:23:58;;;;;;;0.20;0.10;;;;;;;;;;5137238;27;20660;-65
2024/04/03 04:26:24;;;;;;;0.20;0.10;;;;;;;;;;5136708;27;20187;-65
2024/04/03 04:28:50;;;;;;;0.20;0.10;;;;;;;;;;5134389;27;20249;-65
2024/04/03 04:31:15;;;;;;;0.20;0.10;;;;;;;;;;5139100;27;20279;-64
2024/04/03 04:33:42;;;;;;;0.20;0.10;;;;;;;;;;5124313;27;20726;-63
2024/04/03 04:36:08;;;;;;;0.20;0.10;;;;;;;;;;5135251;27;20174;-64
2024/04/03 04:38:34;;;;;;;0.20;0.10;;;;;;;;;;5133740;27;20173;-65
2024/04/03 04:41:00;;;;;;;0.20;0.10;;;;;;;;;;5133236;27;20743;-65
2024/04/03 04:43:27;;;;;;;0.20;0.10;;;;;;;;;;5139265;27;20212;-65
2024/04/03 04:45:57;;;;;;;0.20;0.10;;;;;;;;;;5142249;27;20259;-65
2024/04/03 04:48:23;;;;;;;0.20;0.10;;;;;;;;;;5135144;27;20288;-64
2024/04/03 04:50:52;;;;;;;0.20;0.10;;;;;;;;;;5137521;27;20200;-65
2024/04/03 04:53:18;;;;;;;0.20;0.10;;;;;;;;;;5132957;27;20172;-65
2024/04/03 04:55:57;;;;;;;0.20;0.10;;;;;;;;;;5148120;27;20606;-65
2024/04/03 04:58:24;;;;;;;0.20;0.10;;;;;;;;;;5138935;27;20254;-65
2024/04/03 05:00:51;;;;;;;0.20;0.20;;;;;;;;;;5137368;27;20192;-65
2024/04/03 05:03:17;;;;;;;0.20;0.10;;;;;;;;;;5130843;27;20177;-64
2024/04/03 05:05:43;;;;;;;0.20;0.10;;;;;;;;;;5130494;27;20181;-66
2024/04/03 05:08:10;;;;;;;0.20;0.10;;;;;;;;;;5130874;27;20192;-64
2024/04/03 05:10:36;;;;;;;0.20;0.10;;;;;;;;;;5122157;27;20196;-66
2024/04/03 05:13:03;;;;;;;0.20;0.10;;;;;;;;;;5132133;27;20540;-64
2024/04/03 05:15:32;;;;;;;0.20;0.10;;;;;;;;;;5131560;27;20254;-64
2024/04/03 05:17:59;;;;;;;0.20;0.10;;;;;;;;;;5129856;27;20185;-63
2024/04/03 05:20:25;;;;;;;0.20;0.13;;;;;;;;;;5120546;27;20283;-65
2024/04/03 05:22:51;;;;;;;0.20;0.10;;;;;;;;;;5123014;27;20252;-65
2024/04/03 05:25:17;;;;;;;0.20;0.10;;;;;;;;;;5125981;27;20543;-64
2024/04/03 05:27:44;;;;;;;0.20;0.10;;;;;;;;;;5126709;27;20237;-64
2024/04/03 05:30:10;;;;;;;0.20;0.10;;;;;;;;;;5130246;27;20188;-64
2024/04/03 05:32:36;;;;;;;0.20;0.10;;;;;;;;;;5134116;27;20205;-65
2024/04/03 05:35:02;;;;;;;0.20;0.10;;;;;;;;;;5130636;27;20200;-63
2024/04/03 05:37:28;;;;;;;0.20;0.10;;;;;;;;;;5128740;27;20180;-62
2024/04/03 05:39:54;;;;;;;0.20;0.10;;;;;;;;;;5130512;27;20226;-64
2024/04/03 05:42:20;;;;;;;0.20;0.10;;;;;;;;;;5128570;27;20272;-64
2024/04/03 05:44:46;;;;;;;0.20;0.10;;;;;;;;;;5133619;27;20172;-66
2024/04/03 05:47:12;;;;;;;0.20;0.10;;;;;;;;;;5134935;27;20185;-64
2024/04/03 05:49:38;;;;;;;0.20;0.10;;;;;;;;;;5132438;27;20188;-63
2024/04/03 05:52:04;;;;;;;0.20;0.00;;;;;;;;;;5122092;27;20583;-67
2024/04/03 05:54:30;;;;;;;0.20;0.10;;;;;;;;;;5127350;27;20970;-67
2024/04/03 05:56:56;;;;;;;0.20;0.10;;;;;;;;;;5128657;27;20180;-68
2024/04/03 05:59:22;;;;;;;0.20;0.10;;;;;;;;;;5113782;27;20201;-67
2024/04/03 06:01:49;;;;;;;0.20;0.10;;;;;;;;;;5124133;27;20985;-66
2024/04/03 06:04:15;;;;;;;0.20;0.10;;;;;;;;;;5135198;27;20183;-67
2024/04/03 06:06:41;;;;;;;0.20;0.10;;;;;;;;;;5128424;27;20220;-66
2024/04/03 06:09:07;;;;;;;0.20;0.10;;;;;;;;;;5128790;27;20201;-67
2024/04/03 06:11:33;;;;;;;0.20;0.10;;;;;;;;;;5127235;27;20283;-68
2024/04/03 06:13:59;;;;;;;0.20;0.10;;;;;;;;;;5134888;27;20534;-66
2024/04/03 06:16:26;;;;;;;0.20;0.10;;;;;;;;;;5128986;27;20949;-68
2024/04/03 06:18:54;;;;;;;0.20;0.10;;;;;;;;;;5127448;27;20164;-66
2024/04/03 06:21:20;;;;;;;0.20;0.10;;;;;;;;;;5130483;27;20200;-66
2024/04/03 06:23:46;;;;;;;0.20;0.10;;;;;;;;;;5129867;27;20172;-66
2024/04/03 06:26:12;;;;;;;0.20;0.10;;;;;;;;;;5130187;27;20813;-66
2024/04/03 06:28:38;;;;;;;0.20;0.10;;;;;;;;;;5128241;27;20205;-66
2024/04/03 06:31:04;;;;;;;0.20;0.15;;;;;;;;;;5127341;27;20205;-66
2024/04/03 06:33:30;;;;;;;0.20;0.10;;;;;;;;;;5119701;27;20673;-65
2024/04/03 06:35:56;;;;;;;0.20;0.10;;;;;;;;;;5126162;27;20242;-65
2024/04/03 06:38:22;;;;;;;0.20;0.10;;;;;;;;;;5130814;27;20165;-66
2024/04/03 06:40:48;;;;;;;0.20;0.10;;;;;;;;;;5127859;27;20556;-64
2024/04/03 06:43:14;;;;;;;0.20;0.10;;;;;;;;;;5128195;27;20173;-65
2024/04/03 06:45:40;;;;;;;0.20;0.10;;;;;;;;;;5126651;27;20196;-65
2024/04/03 06:48:06;;;;;;;0.20;0.10;;;;;;;;;;5127504;27;20566;-65
2024/04/03 06:50:32;;;;;;;0.20;0.10;;;;;;;;;;5130182;27;20176;-64
2024/04/03 06:53:00;;;;;;;0.20;0.10;;;;;;;;;;5132258;27;20850;-66
2024/04/03 06:55:26;;;;;;;0.20;0.10;;;;;;;;;;5133070;27;21811;-65
2024/04/03 06:57:52;;;;;;;0.20;0.10;;;;;;;;;;5137935;27;20180;-65
2024/04/03 07:00:19;;;;;;;0.20;0.10;;;;;;;;;;5136123;27;20181;-66
2024/04/03 07:02:47;;;;;;;0.20;0.10;;;;;;;;;;5131423;27;20308;-64
2024/04/03 07:05:13;;;;;;;0.20;0.10;;;;;;;;;;5128667;27;20556;-65
2024/04/03 07:07:40;;;;;;;0.20;0.10;;;;;;;;;;5116637;27;20499;-65
2024/04/03 07:10:08;;;;;;;0.20;0.10;;;;;;;;;;5123750;27;20545;-64
2024/04/03 07:12:34;;;;;;;0.20;0.10;;;;;;;;;;5123178;27;20199;-65
2024/04/03 07:15:00;;;;;;;0.20;0.05;;;;;;;;;;5130266;27;20571;-65
2024/04/03 07:17:26;;;;;;;0.20;0.10;;;;;;;;;;5124022;27;20181;-63
2024/04/03 07:19:52;;;;;;;0.20;0.10;;;;;;;;;;5122215;27;21172;-65
2024/04/03 07:22:18;;;;;;;0.20;0.10;;;;;;;;;;5123098;27;20235;-66
2024/04/03 07:24:44;;;;;;;0.20;0.10;;;;;;;;;;5121527;27;20234;-65
2024/04/03 07:27:10;;;;;;;0.20;0.10;;;;;;;;;;5122744;27;20213;-65
2024/04/03 07:29:36;;;;;;;0.20;0.10;;;;;;;;;;5123718;27;20181;-65
2024/04/03 07:32:02;;;;;;;0.20;0.10;;;;;;;;;;5122851;27;20188;-65
2024/04/03 07:34:28;;;;;;;0.20;0.10;;;;;;;;;;5123855;27;20216;-64
2024/04/03 07:36:54;;;;;;;0.20;0.10;;;;;;;;;;5119728;27;20201;-63
2024/04/03 07:39:20;;;;;;;0.20;0.10;;;;;;;;;;5122387;27;20918;-63
2024/04/03 07:41:47;;;;;;;0.20;0.00;;;;;;;;;;5116650;27;20196;-66
2024/04/03 07:44:17;;;;;;;0.20;0.10;;;;;;;;;;5125322;27;20172;-67
2024/04/03 07:46:43;;;;;;;0.20;0.10;;;;;;;;;;5124199;27;20550;-64
2024/04/03 07:49:10;;;;;;;0.20;0.10;;;;;;;;;;5124897;27;20681;-65
2024/04/03 07:51:37;;;;;;;0.20;0.10;;;;;;;;;;5118157;27;20627;-64
2024/04/03 07:54:03;;;;;;;0.20;0.10;;;;;;;;;;5127893;27;20184;-65
2024/04/03 07:56:29;;;;;;;0.20;0.10;;;;;;;;;;5122379;27;20180;-65
2024/04/03 07:58:55;;;;;;;0.20;0.10;;;;;;;;;;5126421;27;20177;-65
2024/04/03 08:01:21;;;;;;;0.20;0.10;;;;;;;;;;5109392;27;20201;-65
2024/04/03 08:03:47;;;;;;;0.20;0.10;;;;;;;;;;5133251;27;20172;-64
2024/04/03 08:06:13;;;;;;;0.20;0.10;;;;;;;;;;5143295;27;20655;-64
2024/04/03 08:08:40;;;;;;;0.20;0.10;;;;;;;;;;5128372;27;20184;-65
2024/04/03 08:11:07;;;;;;;0.20;0.10;;;;;;;;;;5126291;27;20230;-65
2024/04/03 08:13:33;;;;;;;0.20;0.10;;;;;;;;;;5134250;27;20259;-64
2024/04/03 08:16:02;;;;;;;0.20;0.10;;;;;;;;;;5126805;27;20192;-65
2024/04/03 08:18:28;;;;;;;0.20;0.10;;;;;;;;;;5129776;27;20178;-65
2024/04/03 08:21:03;;;;;;;0.20;0.10;;;;;;;;;;5126835;27;20197;-66
2024/04/03 08:23:29;;;;;;;0.20;0.10;;;;;;;;;;5127600;27;20262;-64
2024/04/03 08:25:55;;;;;;;0.20;0.03;;;;;;;;;;5122005;27;20199;-65
2024/04/03 08:28:21;;;;;;;0.20;0.10;;;;;;;;;;5126993;27;20186;-66
2024/04/03 08:30:47;;;;;;;0.20;0.10;;;;;;;;;;5126499;27;20688;-66
2024/04/03 08:33:13;;;;;;;0.20;0.10;;;;;;;;;;5125049;27;20195;-66
2024/04/03 08:35:39;;;;;;;0.20;0.10;;;;;;;;;;5132467;27;20592;-65
2024/04/03 08:38:05;;;;;;;0.20;0.10;;;;;;;;;;5130743;27;20183;-66
2024/04/03 08:40:31;;;;;;;0.20;0.10;;;;;;;;;;5124672;27;20180;-65
2024/04/03 08:42:57;;;;;;;0.20;0.10;;;;;;;;;;5129819;27;20544;-65
2024/04/03 08:45:26;;;;;;;0.20;0.10;;;;;;;;;;5126582;27;20181;-64
2024/04/03 08:47:52;;;;;;;0.20;0.10;;;;;;;;;;5130709;27;20181;-66
2024/04/03 08:50:18;;;;;;;0.20;0.10;;;;;;;;;;5130944;27;20220;-66
2024/04/03 08:52:44;;;;;;;0.20;0.10;;;;;;;;;;5132171;27;20209;-66
2024/04/03 08:55:14;;;;;;;0.20;0.10;;;;;;;;;;5128014;27;20269;-66
2024/04/03 08:57:40;;;;;;;0.20;0.10;;;;;;;;;;5129973;27;20173;-65
2024/04/03 09:00:08;;;;;;;0.20;0.10;;;;;;;;;;5129977;27;20181;-69
2024/04/03 09:02:34;;;;;;;0.20;0.10;;;;;;;;;;5121356;27;20220;-66
2024/04/03 09:05:01;;;;;;;0.20;0.10;;;;;;;;;;5117890;27;20207;-67
2024/04/03 09:07:27;;;;;;;0.20;0.10;;;;;;;;;;5113349;27;20692;-68
2024/04/03 09:09:54;;;;;;;0.20;0.10;;;;;;;;;;5130180;27;20207;-68
2024/04/03 09:12:24;;;;;;;0.20;0.10;;;;;;;;;;5130185;27;20231;-68
2024/04/03 09:14:50;;;;;;;0.20;0.10;;;;;;;;;;5119260;27;20358;-69
2024/04/03 09:17:17;;;;;;;0.20;0.10;;;;;;;;;;5125843;27;20180;-68
2024/04/03 09:19:49;;;;;;;0.20;0.10;;;;;;;;;;5126200;27;20176;-66
2024/04/03 09:22:18;;;;;;;0.20;0.10;;;;;;;;;;5126028;27;20248;-68
2024/04/03 09:24:44;;;;;;;0.20;0.10;;;;;;;;;;5126312;27;20195;-67
2024/04/03 09:27:11;;;;;;;0.20;0.10;;;;;;;;;;5128620;27;20940;-68
2024/04/03 09:29:37;;;;;;;0.20;0.10;;;;;;;;;;5125429;27;20180;-68
2024/04/03 09:32:04;;;;;;;0.20;0.10;;;;;;;;;;5127056;27;20200;-68
2024/04/03 09:34:33;;;;;;;0.20;0.10;;;;;;;;;;5127660;27;20240;-69
2024/04/03 09:37:02;;;;;;;0.20;0.10;;;;;;;;;;5125158;27;20628;-68
2024/04/03 09:39:28;;;;;;;0.20;0.10;;;;;;;;;;5125319;27;20273;-70
2024/04/03 09:41:58;;;;;;;0.20;0.10;;;;;;;;;;5125008;27;20947;-67
2024/04/03 09:44:25;;;;;;;0.20;0.10;;;;;;;;;;5127814;27;20175;-67
2024/04/03 09:46:54;;;;;;;0.20;0.10;;;;;;;;;;5118597;27;20254;-66
2024/04/03 09:49:25;;;;;;;0.20;0.10;;;;;;;;;;5125209;27;21108;-67
2024/04/03 09:51:51;;;;;;;0.20;0.10;;;;;;;;;;5130520;27;20189;-66
2024/04/03 09:54:19;;;;;;;0.20;0.10;;;;;;;;;;5131356;27;20192;-66
2024/04/03 09:56:45;;;;;;;0.20;0.10;;;;;;;;;;5128931;27;20184;-67
2024/04/03 09:59:12;;;;;;;0.20;0.10;;;;;;;;;;5125958;27;20188;-65
2024/04/03 10:01:39;;;;;;;0.20;0.00;;;;;;;;;;5125258;27;20276;-66
2024/04/03 10:04:06;;;;;;;0.20;0.10;;;;;;;;;;5125841;27;20192;-66
2024/04/03 10:06:36;;;;;;;0.20;0.10;;;;;;;;;;5126981;27;20241;-66
2024/04/03 10:09:15;;;;;;;0.20;0.10;;;;;;;;;;5116170;27;20176;-66
2024/04/03 10:11:45;;;;;;;0.20;0.10;;;;;;;;;;5134705;27;20208;-66
2024/04/03 10:14:18;;;;;;;0.20;0.10;;;;;;;;;;5123230;27;20945;-66
2024/04/03 10:16:44;;;;;;;0.20;0.10;;;;;;;;;;5127099;27;20173;-66
2024/04/03 10:19:10;;;;;;;0.20;0.10;;;;;;;;;;5127740;27;20283;-66
2024/04/03 10:21:36;;;;;;;0.20;0.10;;;;;;;;;;5129673;27;20207;-66
2024/04/03 10:24:02;;;;;;;0.20;0.10;;;;;;;;;;5125868;27;20591;-66
2024/04/03 10:26:30;;;;;;;0.20;0.10;;;;;;;;;;5127614;27;20181;-68
2024/04/03 10:29:02;;;;;;;0.20;0.10;;;;;;;;;;5128148;27;20185;-69
2024/04/03 10:31:28;;;;;;;0.20;0.10;;;;;;;;;;5128149;27;20197;-68
2024/04/03 10:33:54;;;;;;;0.20;0.10;;;;;;;;;;5130144;27;20719;-67
2024/04/03 10:36:20;;;;;;;0.20;0.10;;;;;;;;;;5129947;27;20169;-67
2024/04/03 10:38:46;;;;;;;0.20;0.10;;;;;;;;;;5127656;27;20637;-67
2024/04/03 10:41:12;;;;;;;0.20;0.03;;;;;;;;;;5129340;27;20204;-67
2024/04/03 10:43:38;;;;;;;0.20;0.10;;;;;;;;;;5131169;27;20235;-68
2024/04/03 10:46:06;;;;;;;0.20;0.10;;;;;;;;;;5132358;27;20680;-68
2024/04/03 10:48:32;;;;;;;0.20;0.10;;;;;;;;;;5131120;27;20260;-67
2024/04/03 10:50:58;;;;;;;0.20;0.10;;;;;;;;;;5133664;27;20723;-67
2024/04/03 10:53:24;;;;;;;0.20;0.10;;;;;;;;;;5124216;27;20254;-67
2024/04/03 10:55:51;;;;;;;0.20;0.08;;;;;;;;;;5118183;27;20561;-66
2024/04/03 10:58:17;;;;;;;0.20;0.10;;;;;;;;;;5129876;27;20177;-68
2024/04/03 11:00:43;;;;;;;0.20;0.10;;;;;;;;;;5132457;27;20184;-69
2024/04/03 11:03:10;;;;;;;0.20;0.10;;;;;;;;;;5141089;27;20168;-67
2024/04/03 11:05:37;;;;;;;0.20;0.10;;;;;;;;;;5138005;27;20185;-67
2024/04/03 11:08:05;;;;;;;0.20;0.10;;;;;;;;;;5133413;27;20192;-67
2024/04/03 11:10:31;;;;;;;0.20;0.10;;;;;;;;;;5131187;27;20238;-68
2024/04/03 11:13:10;;;;;;;0.20;0.10;;;;;;;;;;5134642;27;20184;-66
2024/04/03 11:15:36;;;;;;;0.20;0.10;;;;;;;;;;5130715;27;20687;-67
2024/04/03 11:18:03;;;;;;;0.20;0.10;;;;;;;;;;5138019;27;20238;-67
2024/04/03 11:20:31;;;;;;;0.20;0.10;;;;;;;;;;5131414;27;20188;-66
2024/04/03 11:22:58;;;;;;;0.20;0.10;;;;;;;;;;5128867;27;20736;-68
2024/04/03 11:25:32;;;;;;;0.20;0.10;;;;;;;;;;5123424;27;20181;-66
2024/04/03 11:28:00;;;;;;;0.20;0.00;;;;;;;;;;5124920;27;20176;-67
2024/04/03 11:30:26;;;;;;;0.20;0.08;;;;;;;;;;5128327;27;20181;-67
2024/04/03 11:32:52;;;;;;;0.20;0.10;;;;;;;;;;5126476;27;20183;-66
2024/04/03 11:35:18;;;;;;;0.20;0.10;;;;;;;;;;5125573;27;20296;-65
2024/04/03 11:37:45;;;;;;;0.20;0.10;;;;;;;;;;5127384;27;20173;-66
2024/04/03 11:40:11;;;;;;;0.20;0.10;;;;;;;;;;5127658;27;20318;-65
2024/04/03 11:42:37;;;;;;;0.20;0.10;;;;;;;;;;5123314;27;20200;-66
2024/04/03 11:45:04;;;;;;;0.20;0.10;;;;;;;;;;5130636;27;20176;-66
2024/04/03 11:47:31;;;;;;;0.20;0.10;;;;;;;;;;5128445;27;20177;-66
2024/04/03 11:49:57;;;;;;;0.20;0.10;;;;;;;;;;5127940;27;20215;-66
2024/04/03 11:52:23;;;;;;;0.20;0.10;;;;;;;;;;5115438;27;20237;-67
2024/04/03 11:54:49;;;;;;;0.20;0.10;;;;;;;;;;5126906;27;20708;-67
2024/04/03 11:57:15;;;;;;;0.20;0.10;;;;;;;;;;5126753;27;20177;-67
2024/04/03 11:59:41;;;;;;;0.20;0.10;;;;;;;;;;5129048;27;20656;-64
2024/04/03 12:02:07;;;;;;;0.20;0.10;;;;;;;;;;5131386;27;20205;-64
2024/04/03 12:04:33;;;;;;;0.20;0.10;;;;;;;;;;5136705;27;20258;-67
2024/04/03 12:06:59;;;;;;;0.20;0.10;;;;;;;;;;5133662;27;20201;-64
2024/04/03 12:09:26;;;;;;;0.20;0.10;;;;;;;;;;5133663;27;20283;-65
2024/04/03 12:11:52;;;;;;;0.20;0.10;;;;;;;;;;5131242;27;20195;-68
2024/04/03 12:14:18;;;;;;;0.20;0.10;;;;;;;;;;5129627;27;20253;-65
2024/04/03 12:16:45;;;;;;;0.20;0.10;;;;;;;;;;5125990;27;20239;-66
2024/04/03 12:19:52;;;;;;;0.20;0.10;;;;;;;;;;5136535;27;20165;-65
2024/04/03 12:22:04;;;;;;;0.20;0.10;;;;;;;;;;5130449;27;20221;-65
2024/04/03 12:24:30;;;;;;;0.20;0.10;;;;;;;;;;5140129;27;20230;-65
2024/04/03 12:26:56;;;;;;;0.20;0.10;;;;;;;;;;5113588;27;20612;-65
2024/04/03 12:29:22;;;;;;;0.20;0.10;;;;;;;;;;5133037;27;20172;-65
2024/04/03 12:31:51;;;;;;;0.20;0.10;;;;;;;;;;5130033;27;20216;-65
2024/04/03 12:34:17;;;;;;;0.20;0.10;;;;;;;;;;5123719;27;20193;-66
2024/04/03 12:36:43;;;;;;;0.20;0.10;;;;;;;;;;5129374;27;20181;-65
2024/04/03 12:39:09;;;;;;;0.20;0.20;;;;;;;;;;5131639;27;20184;-66
2024/04/03 12:41:35;;;;;;;0.20;0.10;;;;;;;;;;5126833;27;20192;-66
2024/04/03 12:44:01;;;;;;;0.20;0.10;;;;;;;;;;5133436;27;20543;-68
2024/04/03 12:46:28;;;;;;;0.20;0.10;;;;;;;;;;5124906;27;20183;-67
2024/04/03 12:48:54;;;;;;;0.20;0.10;;;;;;;;;;5130471;27;20169;-66
2024/04/03 12:51:20;;;;;;;0.20;0.20;;;;;;;;;;5134150;27;20207;-64
2024/04/03 12:53:46;;;;;;;0.20;0.10;;;;;;;;;;5129024;27;20660;-65
2024/04/03 12:56:12;;;;;;;0.20;0.10;;;;;;;;;;5130075;27;20695;-66
2024/04/03 12:58:39;;;;;;;0.20;0.10;;;;;;;;;;5128139;27;20258;-66
2024/04/03 13:01:07;;;;;;;0.20;0.10;;;;;;;;;;5131467;27;20278;-66
2024/04/03 13:03:33;;;;;;;0.20;0.10;;;;;;;;;;5130997;27;20197;-66
2024/04/03 13:05:59;;;;;;;0.20;0.10;;;;;;;;;;5139808;27;20215;-66
2024/04/03 13:08:25;;;;;;;0.20;0.10;;;;;;;;;;5134987;27;20225;-64
2024/04/03 13:10:51;;;;;;;0.20;0.10;;;;;;;;;;5135671;27;20705;-64
2024/04/03 13:13:18;;;;;;;0.20;0.10;;;;;;;;;;5139083;27;20243;-64
2024/04/03 13:15:44;;;;;;;0.20;0.10;;;;;;;;;;5115942;27;20291;-64
2024/04/03 13:18:10;;;;;;;0.20;0.10;;;;;;;;;;5144394;27;20268;-64
2024/04/03 13:20:36;;;;;;;0.20;0.10;;;;;;;;;;5124045;27;20285;-65
2024/04/03 13:23:03;;;;;;;0.20;0.10;;;;;;;;;;5120349;27;20183;-64
2024/04/03 13:25:29;;;;;;;0.20;0.10;;;;;;;;;;5136168;27;20203;-64
2024/04/03 13:27:56;;;;;;;0.20;0.10;;;;;;;;;;5137473;27;20212;-68
2024/04/03 13:30:22;;;;;;;0.20;0.10;;;;;;;;;;5124315;27;20984;-64
2024/04/03 13:32:49;;;;;;;0.20;0.10;;;;;;;;;;5129769;27;20675;-64
2024/04/03 13:35:19;;;;;;;0.20;0.10;;;;;;;;;;5136465;27;20204;-64
2024/04/03 13:37:47;;;;;;;0.20;0.10;;;;;;;;;;5130903;27;20612;-64
2024/04/03 13:40:14;;;;;;;0.20;0.10;;;;;;;;;;5129303;27;20202;-64
2024/04/03 13:42:40;;;;;;;0.20;0.10;;;;;;;;;;5130346;27;20263;-64
2024/04/03 13:45:06;;;;;;;0.20;0.10;;;;;;;;;;5137917;27;20310;-64
2024/04/03 13:47:32;;;;;;;0.20;0.00;;;;;;;;;;5136270;27;20816;-64
2024/04/03 13:49:58;;;;;;;0.20;0.10;;;;;;;;;;5127926;27;20196;-64
2024/04/03 13:52:25;;;;;;;0.20;0.10;;;;;;;;;;5130013;27;20781;-64
2024/04/03 13:54:50;;;;;;;0.20;0.10;;;;;;;;;;5128652;27;20240;-66
2024/04/03 13:57:17;;;;;;;0.20;0.10;;;;;;;;;;5130170;27;20199;-69
2024/04/03 13:59:43;;;;;;;0.20;0.10;;;;;;;;;;5131295;27;20173;-68
2024/04/03 14:02:12;;;;;;;0.20;0.10;;;;;;;;;;5126767;27;20298;-66
2024/04/03 14:04:40;;;;;;;0.20;0.10;;;;;;;;;;5132684;27;20267;-65
2024/04/03 14:07:06;;;;;;;0.20;0.05;;;;;;;;;;5125342;27;20249;-65
2024/04/03 14:09:32;;;;;;;0.20;0.10;;;;;;;;;;5132784;27;20185;-65
2024/04/03 14:11:58;;;;;;;0.20;0.10;;;;;;;;;;5133723;27;20537;-65
2024/04/03 14:14:24;;;;;;;0.20;0.00;;;;;;;;;;5137525;27;20196;-65
2024/04/03 14:16:50;;;;;;;0.20;0.10;;;;;;;;;;5129051;27;20177;-65
2024/04/03 14:19:17;;;;;;;0.20;0.10;;;;;;;;;;5136884;27;20184;-65
2024/04/03 14:21:44;;;;;;;0.20;0.10;;;;;;;;;;5134727;27;20184;-65
2024/04/03 14:24:09;;;;;;;0.20;0.10;;;;;;;;;;5145490;27;20687;-65
2024/04/03 14:26:35;;;;;;;0.20;0.10;;;;;;;;;;5140897;27;20172;-65
2024/04/03 14:29:02;;;;;;;0.20;0.10;;;;;;;;;;5141850;27;20211;-66
2024/04/03 14:31:29;;;;;;;0.20;0.00;;;;;;;;;;5135462;27;20184;-65
2024/04/03 14:33:55;;;;;;;0.20;0.10;;;;;;;;;;5131817;27;20161;-65
2024/04/03 14:36:21;;;;;;;0.20;0.10;;;;;;;;;;5128864;27;20203;-65
2024/04/03 14:38:47;;;;;;;0.20;0.10;;;;;;;;;;5129147;27;20252;-65
2024/04/03 14:41:14;;;;;;;0.20;0.10;;;;;;;;;;5123047;27;20247;-65
2024/04/03 14:43:40;;;;;;;0.20;0.10;;;;;;;;;;5134052;27;20169;-65